sensor_id;sensor_type;location;lat;lon;timestamp;P1;durP1;ratioP1;P2;durP2;ratioP2
43986;SDS011;29650;47.378;8.300;2022-10-14T00:00:39;9.52;;;3.90;;
43986;SDS011;29650;47.378;8.300;2022-10-14T00:03:06;9.23;;;4.32;;
43986;SDS011;29650;47.378;8.300;2022-10-14T00:05:33;11.73;;;5.18;;
43986;SDS011;29650;47.378;8.300;2022-10-14T00:08:05;7.18;;;4.13;;
43986;SDS011;29650;47.378;8.300;2022-10-14T00:10:36;14.18;;;4.82;;
43986;SDS011;29650;47.378;8.300;2022-10-14T00:13:04;9.20;;;3.38;;
43986;SDS011;29650;47.378;8.300;2022-10-14T00:15:31;19.17;;;6.18;;
43986;SDS011;29650;47.378;8.300;2022-10-14T00:18:02;11.27;;;5.00;;
43986;SDS011;29650;47.378;8.300;2022-10-14T00:20:29;16.33;;;5.43;;
43986;SDS011;29650;47.378;8.300;2022-10-14T00:22:56;17.20;;;6.18;;
43986;SDS011;29650;47.378;8.300;2022-10-14T00:25:23;87.13;;;21.98;;
43986;SDS011;29650;47.378;8.300;2022-10-14T00:27:53;28.63;;;8.07;;
43986;SDS011;29650;47.378;8.300;2022-10-14T00:30:20;16.17;;;5.35;;
43986;SDS011;29650;47.378;8.300;2022-10-14T00:32:47;13.63;;;4.22;;
43986;SDS011;29650;47.378;8.300;2022-10-14T00:35:14;11.40;;;3.45;;
43986;SDS011;29650;47.378;8.300;2022-10-14T00:37:41;6.55;;;3.50;;
43986;SDS011;29650;47.378;8.300;2022-10-14T00:40:08;15.75;;;6.68;;
43986;SDS011;29650;47.378;8.300;2022-10-14T00:42:36;8.48;;;3.60;;
43986;SDS011;29650;47.378;8.300;2022-10-14T00:45:05;9.82;;;4.97;;
43986;SDS011;29650;47.378;8.300;2022-10-14T00:47:37;10.45;;;5.25;;
43986;SDS011;29650;47.378;8.300;2022-10-14T00:50:05;11.02;;;4.88;;
43986;SDS011;29650;47.378;8.300;2022-10-14T00:52:33;13.52;;;4.72;;
43986;SDS011;29650;47.378;8.300;2022-10-14T00:55:01;50.25;;;12.55;;
43986;SDS011;29650;47.378;8.300;2022-10-14T00:57:30;59.08;;;15.85;;
43986;SDS011;29650;47.378;8.300;2022-10-14T01:00:00;24.20;;;9.73;;
43986;SDS011;29650;47.378;8.300;2022-10-14T01:02:32;27.63;;;9.50;;
43986;SDS011;29650;47.378;8.300;2022-10-14T01:04:59;24.08;;;9.10;;
43986;SDS011;29650;47.378;8.300;2022-10-14T01:07:30;17.45;;;6.15;;
43986;SDS011;29650;47.378;8.300;2022-10-14T01:10:06;32.65;;;9.10;;
43986;SDS011;29650;47.378;8.300;2022-10-14T01:12:40;32.35;;;8.65;;
43986;SDS011;29650;47.378;8.300;2022-10-14T01:15:16;25.55;;;6.88;;
43986;SDS011;29650;47.378;8.300;2022-10-14T01:17:55;29.98;;;7.65;;
43986;SDS011;29650;47.378;8.300;2022-10-14T01:29:24;12.25;;;4.05;;
43986;SDS011;29650;47.378;8.300;2022-10-14T01:32:18;28.73;;;8.00;;
43986;SDS011;29650;47.378;8.300;2022-10-14T01:34:52;17.58;;;7.40;;
43986;SDS011;29650;47.378;8.300;2022-10-14T01:37:27;7.53;;;3.47;;
43986;SDS011;29650;47.378;8.300;2022-10-14T01:39:56;18.35;;;6.60;;
43986;SDS011;29650;47.378;8.300;2022-10-14T01:42:30;13.90;;;4.70;;
43986;SDS011;29650;47.378;8.300;2022-10-14T01:45:02;8.55;;;4.07;;
43986;SDS011;29650;47.378;8.300;2022-10-14T01:47:32;12.50;;;4.05;;
43986;SDS011;29650;47.378;8.300;2022-10-14T01:52:31;8.20;;;4.03;;
43986;SDS011;29650;47.378;8.300;2022-10-14T01:55:03;8.30;;;3.72;;
43986;SDS011;29650;47.378;8.300;2022-10-14T01:57:33;8.40;;;4.38;;
43986;SDS011;29650;47.378;8.300;2022-10-14T02:00:05;14.15;;;3.55;;
43986;SDS011;29650;47.378;8.300;2022-10-14T02:02:34;10.00;;;3.53;;
43986;SDS011;29650;47.378;8.300;2022-10-14T02:05:02;7.90;;;3.60;;
43986;SDS011;29650;47.378;8.300;2022-10-14T02:07:33;10.43;;;3.53;;
43986;SDS011;29650;47.378;8.300;2022-10-14T02:10:05;7.43;;;3.50;;
43986;SDS011;29650;47.378;8.300;2022-10-14T02:12:40;6.95;;;3.30;;
43986;SDS011;29650;47.378;8.300;2022-10-14T02:15:17;5.78;;;2.95;;
43986;SDS011;29650;47.378;8.300;2022-10-14T02:17:52;7.80;;;3.13;;
43986;SDS011;29650;47.378;8.300;2022-10-14T02:20:22;8.45;;;3.22;;
43986;SDS011;29650;47.378;8.300;2022-10-14T02:22:56;11.02;;;3.08;;
43986;SDS011;29650;47.378;8.300;2022-10-14T02:25:26;5.75;;;3.00;;
43986;SDS011;29650;47.378;8.300;2022-10-14T02:27:56;5.57;;;3.42;;
43986;SDS011;29650;47.378;8.300;2022-10-14T02:30:26;5.40;;;3.08;;
43986;SDS011;29650;47.378;8.300;2022-10-14T02:32:56;7.13;;;2.67;;
43986;SDS011;29650;47.378;8.300;2022-10-14T02:35:25;9.00;;;3.35;;
43986;SDS011;29650;47.378;8.300;2022-10-14T02:37:53;6.93;;;3.55;;
43986;SDS011;29650;47.378;8.300;2022-10-14T02:42:52;9.95;;;4.35;;
43986;SDS011;29650;47.378;8.300;2022-10-14T02:45:19;8.15;;;3.45;;
43986;SDS011;29650;47.378;8.300;2022-10-14T02:47:48;14.90;;;4.53;;
43986;SDS011;29650;47.378;8.300;2022-10-14T02:50:15;8.13;;;4.05;;
43986;SDS011;29650;47.378;8.300;2022-10-14T02:52:43;8.75;;;3.78;;
43986;SDS011;29650;47.378;8.300;2022-10-14T02:55:10;9.73;;;4.03;;
43986;SDS011;29650;47.378;8.300;2022-10-14T02:57:37;14.77;;;4.65;;
43986;SDS011;29650;47.378;8.300;2022-10-14T03:00:04;19.85;;;4.38;;
43986;SDS011;29650;47.378;8.300;2022-10-14T03:02:32;14.68;;;4.50;;
43986;SDS011;29650;47.378;8.300;2022-10-14T03:05:00;5.90;;;3.42;;
43986;SDS011;29650;47.378;8.300;2022-10-14T03:07:27;15.23;;;3.63;;
43986;SDS011;29650;47.378;8.300;2022-10-14T03:09:54;7.45;;;3.25;;
43986;SDS011;29650;47.378;8.300;2022-10-14T03:12:22;6.35;;;3.47;;
43986;SDS011;29650;47.378;8.300;2022-10-14T03:14:49;6.78;;;3.42;;
43986;SDS011;29650;47.378;8.300;2022-10-14T03:17:16;6.90;;;3.95;;
43986;SDS011;29650;47.378;8.300;2022-10-14T03:19:43;15.90;;;4.10;;
43986;SDS011;29650;47.378;8.300;2022-10-14T03:22:11;7.65;;;2.83;;
43986;SDS011;29650;47.378;8.300;2022-10-14T03:24:38;6.15;;;2.90;;
43986;SDS011;29650;47.378;8.300;2022-10-14T03:27:05;12.00;;;3.80;;
43986;SDS011;29650;47.378;8.300;2022-10-14T03:29:31;5.65;;;3.13;;
43986;SDS011;29650;47.378;8.300;2022-10-14T03:31:58;7.03;;;3.70;;
43986;SDS011;29650;47.378;8.300;2022-10-14T03:34:25;6.53;;;3.42;;
43986;SDS011;29650;47.378;8.300;2022-10-14T03:36:52;11.30;;;4.22;;
43986;SDS011;29650;47.378;8.300;2022-10-14T03:39:20;6.25;;;3.22;;
43986;SDS011;29650;47.378;8.300;2022-10-14T03:41:47;16.08;;;5.07;;
43986;SDS011;29650;47.378;8.300;2022-10-14T03:44:14;16.77;;;6.75;;
43986;SDS011;29650;47.378;8.300;2022-10-14T03:46:41;12.57;;;4.63;;
43986;SDS011;29650;47.378;8.300;2022-10-14T03:49:08;18.58;;;6.78;;
43986;SDS011;29650;47.378;8.300;2022-10-14T03:51:35;12.13;;;5.22;;
43986;SDS011;29650;47.378;8.300;2022-10-14T03:54:02;35.63;;;8.88;;
43986;SDS011;29650;47.378;8.300;2022-10-14T03:56:30;7.80;;;3.58;;
43986;SDS011;29650;47.378;8.300;2022-10-14T03:58:57;24.17;;;7.40;;
43986;SDS011;29650;47.378;8.300;2022-10-14T04:01:24;45.55;;;11.32;;
43986;SDS011;29650;47.378;8.300;2022-10-14T04:03:51;23.42;;;6.40;;
43986;SDS011;29650;47.378;8.300;2022-10-14T04:06:18;12.70;;;3.92;;
43986;SDS011;29650;47.378;8.300;2022-10-14T04:08:45;11.90;;;3.33;;
43986;SDS011;29650;47.378;8.300;2022-10-14T04:11:12;29.38;;;9.00;;
43986;SDS011;29650;47.378;8.300;2022-10-14T04:13:42;31.20;;;7.57;;
43986;SDS011;29650;47.378;8.300;2022-10-14T04:16:09;23.30;;;6.00;;
43986;SDS011;29650;47.378;8.300;2022-10-14T04:18:36;4.03;;;2.60;;
43986;SDS011;29650;47.378;8.300;2022-10-14T04:21:04;4.68;;;2.95;;
43986;SDS011;29650;47.378;8.300;2022-10-14T04:23:33;19.58;;;5.15;;
43986;SDS011;29650;47.378;8.300;2022-10-14T04:26:01;7.85;;;3.83;;
43986;SDS011;29650;47.378;8.300;2022-10-14T04:30:57;17.02;;;4.18;;
43986;SDS011;29650;47.378;8.300;2022-10-14T04:33:24;7.78;;;3.20;;
43986;SDS011;29650;47.378;8.300;2022-10-14T04:35:55;12.10;;;3.53;;
43986;SDS011;29650;47.378;8.300;2022-10-14T04:38:24;6.97;;;2.97;;
43986;SDS011;29650;47.378;8.300;2022-10-14T04:40:51;7.85;;;3.97;;
43986;SDS011;29650;47.378;8.300;2022-10-14T04:43:18;6.25;;;3.45;;
43986;SDS011;29650;47.378;8.300;2022-10-14T04:45:45;4.57;;;2.75;;
43986;SDS011;29650;47.378;8.300;2022-10-14T04:48:14;6.78;;;3.13;;
43986;SDS011;29650;47.378;8.300;2022-10-14T04:50:42;4.70;;;2.20;;
43986;SDS011;29650;47.378;8.300;2022-10-14T04:53:09;4.07;;;2.40;;
43986;SDS011;29650;47.378;8.300;2022-10-14T04:55:36;4.35;;;2.65;;
43986;SDS011;29650;47.378;8.300;2022-10-14T04:58:02;5.43;;;2.58;;
43986;SDS011;29650;47.378;8.300;2022-10-14T05:00:29;5.60;;;2.53;;
43986;SDS011;29650;47.378;8.300;2022-10-14T05:02:56;5.60;;;2.70;;
43986;SDS011;29650;47.378;8.300;2022-10-14T05:05:24;4.72;;;2.65;;
43986;SDS011;29650;47.378;8.300;2022-10-14T05:07:51;5.78;;;2.45;;
43986;SDS011;29650;47.378;8.300;2022-10-14T05:10:18;7.10;;;3.13;;
43986;SDS011;29650;47.378;8.300;2022-10-14T05:12:45;3.88;;;2.22;;
43986;SDS011;29650;47.378;8.300;2022-10-14T05:15:12;6.53;;;3.08;;
43986;SDS011;29650;47.378;8.300;2022-10-14T05:17:40;4.18;;;2.47;;
43986;SDS011;29650;47.378;8.300;2022-10-14T05:20:08;7.50;;;3.65;;
43986;SDS011;29650;47.378;8.300;2022-10-14T05:22:37;4.13;;;2.45;;
43986;SDS011;29650;47.378;8.300;2022-10-14T05:25:04;12.63;;;2.72;;
43986;SDS011;29650;47.378;8.300;2022-10-14T05:27:32;5.10;;;3.00;;
43986;SDS011;29650;47.378;8.300;2022-10-14T05:29:59;5.13;;;2.67;;
43986;SDS011;29650;47.378;8.300;2022-10-14T05:32:26;4.65;;;2.72;;
43986;SDS011;29650;47.378;8.300;2022-10-14T05:34:53;3.85;;;2.60;;
43986;SDS011;29650;47.378;8.300;2022-10-14T05:37:20;6.55;;;2.50;;
43986;SDS011;29650;47.378;8.300;2022-10-14T05:39:48;4.38;;;2.72;;
43986;SDS011;29650;47.378;8.300;2022-10-14T05:42:15;4.70;;;2.22;;
43986;SDS011;29650;47.378;8.300;2022-10-14T05:44:42;4.00;;;2.10;;
43986;SDS011;29650;47.378;8.300;2022-10-14T05:47:09;4.75;;;2.80;;
43986;SDS011;29650;47.378;8.300;2022-10-14T05:49:36;4.40;;;2.28;;
43986;SDS011;29650;47.378;8.300;2022-10-14T05:52:03;5.22;;;2.63;;
43986;SDS011;29650;47.378;8.300;2022-10-14T05:54:30;6.85;;;2.75;;
43986;SDS011;29650;47.378;8.300;2022-10-14T05:56:58;7.00;;;2.60;;
43986;SDS011;29650;47.378;8.300;2022-10-14T05:59:25;7.20;;;3.22;;
43986;SDS011;29650;47.378;8.300;2022-10-14T06:01:53;4.35;;;2.70;;
43986;SDS011;29650;47.378;8.300;2022-10-14T06:04:20;5.07;;;2.70;;
43986;SDS011;29650;47.378;8.300;2022-10-14T06:06:47;9.13;;;3.30;;
43986;SDS011;29650;47.378;8.300;2022-10-14T06:09:14;4.72;;;2.50;;
43986;SDS011;29650;47.378;8.300;2022-10-14T06:11:42;5.32;;;3.08;;
43986;SDS011;29650;47.378;8.300;2022-10-14T06:14:10;9.57;;;3.45;;
43986;SDS011;29650;47.378;8.300;2022-10-14T06:16:37;7.88;;;3.05;;
43986;SDS011;29650;47.378;8.300;2022-10-14T06:19:04;4.03;;;2.17;;
43986;SDS011;29650;47.378;8.300;2022-10-14T06:21:31;6.15;;;3.17;;
43986;SDS011;29650;47.378;8.300;2022-10-14T06:23:58;3.42;;;2.30;;
43986;SDS011;29650;47.378;8.300;2022-10-14T06:26:25;4.20;;;2.78;;
43986;SDS011;29650;47.378;8.300;2022-10-14T06:28:51;5.05;;;2.75;;
43986;SDS011;29650;47.378;8.300;2022-10-14T06:31:20;5.38;;;2.50;;
43986;SDS011;29650;47.378;8.300;2022-10-14T06:33:47;7.05;;;3.63;;
43986;SDS011;29650;47.378;8.300;2022-10-14T06:36:13;7.57;;;3.75;;
43986;SDS011;29650;47.378;8.300;2022-10-14T06:38:40;10.73;;;4.05;;
43986;SDS011;29650;47.378;8.300;2022-10-14T06:41:07;5.15;;;3.17;;
43986;SDS011;29650;47.378;8.300;2022-10-14T06:43:34;6.30;;;3.00;;
43986;SDS011;29650;47.378;8.300;2022-10-14T06:46:02;6.60;;;2.90;;
43986;SDS011;29650;47.378;8.300;2022-10-14T06:48:31;5.32;;;2.83;;
43986;SDS011;29650;47.378;8.300;2022-10-14T06:50:58;7.40;;;3.28;;
43986;SDS011;29650;47.378;8.300;2022-10-14T06:53:25;7.80;;;3.30;;
43986;SDS011;29650;47.378;8.300;2022-10-14T06:55:56;5.18;;;3.03;;
43986;SDS011;29650;47.378;8.300;2022-10-14T06:58:24;4.55;;;2.40;;
43986;SDS011;29650;47.378;8.300;2022-10-14T07:00:51;5.40;;;2.63;;
43986;SDS011;29650;47.378;8.300;2022-10-14T07:03:18;4.22;;;2.42;;
43986;SDS011;29650;47.378;8.300;2022-10-14T07:05:46;6.10;;;2.97;;
43986;SDS011;29650;47.378;8.300;2022-10-14T07:08:13;6.32;;;2.88;;
43986;SDS011;29650;47.378;8.300;2022-10-14T07:10:40;4.53;;;3.10;;
43986;SDS011;29650;47.378;8.300;2022-10-14T07:13:07;6.00;;;2.53;;
43986;SDS011;29650;47.378;8.300;2022-10-14T07:15:35;4.75;;;2.65;;
43986;SDS011;29650;47.378;8.300;2022-10-14T07:18:03;5.70;;;3.63;;
43986;SDS011;29650;47.378;8.300;2022-10-14T07:20:30;6.55;;;3.00;;
43986;SDS011;29650;47.378;8.300;2022-10-14T07:22:58;6.00;;;3.15;;
43986;SDS011;29650;47.378;8.300;2022-10-14T07:25:25;6.20;;;3.85;;
43986;SDS011;29650;47.378;8.300;2022-10-14T07:27:52;8.35;;;3.50;;
43986;SDS011;29650;47.378;8.300;2022-10-14T07:30:19;6.32;;;3.55;;
43986;SDS011;29650;47.378;8.300;2022-10-14T07:32:46;10.40;;;3.92;;
43986;SDS011;29650;47.378;8.300;2022-10-14T07:35:13;10.40;;;3.80;;
43986;SDS011;29650;47.378;8.300;2022-10-14T07:37:40;7.38;;;3.97;;
43986;SDS011;29650;47.378;8.300;2022-10-14T07:40:09;4.85;;;3.63;;
43986;SDS011;29650;47.378;8.300;2022-10-14T07:42:37;6.15;;;3.13;;
43986;SDS011;29650;47.378;8.300;2022-10-14T07:45:05;11.85;;;3.58;;
43986;SDS011;29650;47.378;8.300;2022-10-14T07:47:33;7.70;;;2.92;;
43986;SDS011;29650;47.378;8.300;2022-10-14T07:50:00;8.10;;;2.95;;
43986;SDS011;29650;47.378;8.300;2022-10-14T07:52:27;5.38;;;2.92;;
43986;SDS011;29650;47.378;8.300;2022-10-14T07:54:54;4.28;;;3.00;;
43986;SDS011;29650;47.378;8.300;2022-10-14T07:57:22;3.13;;;2.25;;
43986;SDS011;29650;47.378;8.300;2022-10-14T07:59:49;5.10;;;2.95;;
43986;SDS011;29650;47.378;8.300;2022-10-14T08:02:17;4.70;;;3.33;;
43986;SDS011;29650;47.378;8.300;2022-10-14T08:04:44;9.77;;;3.75;;
43986;SDS011;29650;47.378;8.300;2022-10-14T08:07:11;13.20;;;6.28;;
43986;SDS011;29650;47.378;8.300;2022-10-14T08:09:39;14.23;;;6.50;;
43986;SDS011;29650;47.378;8.300;2022-10-14T08:12:06;13.98;;;10.10;;
43986;SDS011;29650;47.378;8.300;2022-10-14T08:14:34;15.55;;;9.80;;
43986;SDS011;29650;47.378;8.300;2022-10-14T08:17:01;14.77;;;8.30;;
43986;SDS011;29650;47.378;8.300;2022-10-14T08:19:28;7.57;;;3.78;;
43986;SDS011;29650;47.378;8.300;2022-10-14T08:21:55;6.57;;;3.92;;
43986;SDS011;29650;47.378;8.300;2022-10-14T08:24:22;7.85;;;4.40;;
43986;SDS011;29650;47.378;8.300;2022-10-14T08:26:49;8.20;;;3.70;;
43986;SDS011;29650;47.378;8.300;2022-10-14T08:29:17;5.70;;;3.00;;
43986;SDS011;29650;47.378;8.300;2022-10-14T08:31:47;10.25;;;3.22;;
43986;SDS011;29650;47.378;8.300;2022-10-14T08:34:14;5.47;;;2.92;;
43986;SDS011;29650;47.378;8.300;2022-10-14T08:36:45;5.97;;;2.20;;
43986;SDS011;29650;47.378;8.300;2022-10-14T08:39:11;13.23;;;3.67;;
43986;SDS011;29650;47.378;8.300;2022-10-14T08:44:40;4.28;;;2.50;;
43986;SDS011;29650;47.378;8.300;2022-10-14T08:47:12;4.82;;;2.97;;
43986;SDS011;29650;47.378;8.300;2022-10-14T08:49:48;4.03;;;2.35;;
43986;SDS011;29650;47.378;8.300;2022-10-14T08:52:23;4.63;;;2.88;;
43986;SDS011;29650;47.378;8.300;2022-10-14T08:54:55;6.40;;;3.05;;
43986;SDS011;29650;47.378;8.300;2022-10-14T08:57:26;4.40;;;2.45;;
43986;SDS011;29650;47.378;8.300;2022-10-14T08:59:56;9.18;;;2.78;;
43986;SDS011;29650;47.378;8.300;2022-10-14T09:02:30;5.38;;;2.72;;
43986;SDS011;29650;47.378;8.300;2022-10-14T09:05:04;4.10;;;2.70;;
43986;SDS011;29650;47.378;8.300;2022-10-14T09:07:32;5.47;;;2.50;;
43986;SDS011;29650;47.378;8.300;2022-10-14T09:10:02;8.53;;;2.40;;
43986;SDS011;29650;47.378;8.300;2022-10-14T09:12:32;4.22;;;2.28;;
43986;SDS011;29650;47.378;8.300;2022-10-14T09:17:38;5.28;;;2.25;;
43986;SDS011;29650;47.378;8.300;2022-10-14T09:20:13;3.83;;;2.58;;
43986;SDS011;29650;47.378;8.300;2022-10-14T09:22:43;4.57;;;2.33;;
43986;SDS011;29650;47.378;8.300;2022-10-14T09:25:12;3.22;;;2.15;;
43986;SDS011;29650;47.378;8.300;2022-10-14T09:27:40;6.28;;;3.10;;
43986;SDS011;29650;47.378;8.300;2022-10-14T09:30:11;11.30;;;2.22;;
43986;SDS011;29650;47.378;8.300;2022-10-14T09:32:41;2.90;;;1.77;;
43986;SDS011;29650;47.378;8.300;2022-10-14T09:35:13;2.17;;;1.70;;
43986;SDS011;29650;47.378;8.300;2022-10-14T09:37:45;3.00;;;1.40;;
43986;SDS011;29650;47.378;8.300;2022-10-14T09:40:17;2.30;;;1.95;;
43986;SDS011;29650;47.378;8.300;2022-10-14T09:42:48;2.10;;;1.48;;
43986;SDS011;29650;47.378;8.300;2022-10-14T09:45:20;6.97;;;1.75;;
43986;SDS011;29650;47.378;8.300;2022-10-14T09:47:51;3.58;;;1.75;;
43986;SDS011;29650;47.378;8.300;2022-10-14T09:50:22;3.50;;;1.80;;
43986;SDS011;29650;47.378;8.300;2022-10-14T09:52:52;3.47;;;2.08;;
43986;SDS011;29650;47.378;8.300;2022-10-14T09:55:22;59.85;;;16.30;;
43986;SDS011;29650;47.378;8.300;2022-10-14T09:57:57;19.02;;;7.88;;
43986;SDS011;29650;47.378;8.300;2022-10-14T10:00:29;3.55;;;2.40;;
43986;SDS011;29650;47.378;8.300;2022-10-14T10:02:59;4.32;;;2.53;;
43986;SDS011;29650;47.378;8.300;2022-10-14T10:05:27;2.87;;;1.73;;
43986;SDS011;29650;47.378;8.300;2022-10-14T10:08:14;4.85;;;2.05;;
43986;SDS011;29650;47.378;8.300;2022-10-14T10:10:50;4.65;;;1.30;;
43986;SDS011;29650;47.378;8.300;2022-10-14T10:13:28;5.15;;;1.95;;
43986;SDS011;29650;47.378;8.300;2022-10-14T10:15:58;4.03;;;2.08;;
43986;SDS011;29650;47.378;8.300;2022-10-14T10:18:28;2.70;;;1.50;;
43986;SDS011;29650;47.378;8.300;2022-10-14T10:20:59;3.20;;;1.70;;
43986;SDS011;29650;47.378;8.300;2022-10-14T10:23:32;2.13;;;1.55;;
43986;SDS011;29650;47.378;8.300;2022-10-14T10:26:14;2.95;;;1.48;;
43986;SDS011;29650;47.378;8.300;2022-10-14T10:28:45;3.00;;;1.42;;
43986;SDS011;29650;47.378;8.300;2022-10-14T10:37:23;2.90;;;1.80;;
43986;SDS011;29650;47.378;8.300;2022-10-14T10:39:56;3.90;;;1.60;;
43986;SDS011;29650;47.378;8.300;2022-10-14T10:42:34;2.45;;;1.30;;
43986;SDS011;29650;47.378;8.300;2022-10-14T10:45:10;2.45;;;1.50;;
43986;SDS011;29650;47.378;8.300;2022-10-14T10:47:42;7.07;;;2.30;;
43986;SDS011;29650;47.378;8.300;2022-10-14T10:50:19;4.63;;;1.52;;
43986;SDS011;29650;47.378;8.300;2022-10-14T10:52:59;2.20;;;1.50;;
43986;SDS011;29650;47.378;8.300;2022-10-14T10:55:44;8.40;;;1.73;;
43986;SDS011;29650;47.378;8.300;2022-10-14T10:58:22;2.60;;;1.48;;
43986;SDS011;29650;47.378;8.300;2022-10-14T11:01:05;3.05;;;1.98;;
43986;SDS011;29650;47.378;8.300;2022-10-14T11:03:43;2.38;;;1.23;;
43986;SDS011;29650;47.378;8.300;2022-10-14T11:06:24;1.63;;;1.38;;
43986;SDS011;29650;47.378;8.300;2022-10-14T11:09:15;3.03;;;1.73;;
43986;SDS011;29650;47.378;8.300;2022-10-14T11:12:07;2.53;;;1.65;;
43986;SDS011;29650;47.378;8.300;2022-10-14T11:14:44;2.75;;;2.13;;
43986;SDS011;29650;47.378;8.300;2022-10-14T11:17:24;2.85;;;1.50;;
43986;SDS011;29650;47.378;8.300;2022-10-14T11:19:58;3.47;;;1.38;;
43986;SDS011;29650;47.378;8.300;2022-10-14T11:22:46;2.58;;;1.30;;
43986;SDS011;29650;47.378;8.300;2022-10-14T11:25:31;2.72;;;1.63;;
43986;SDS011;29650;47.378;8.300;2022-10-14T11:28:09;4.30;;;1.90;;
43986;SDS011;29650;47.378;8.300;2022-10-14T11:30:43;2.33;;;1.88;;
43986;SDS011;29650;47.378;8.300;2022-10-14T11:33:18;3.05;;;1.95;;
43986;SDS011;29650;47.378;8.300;2022-10-14T11:35:56;2.63;;;1.63;;
43986;SDS011;29650;47.378;8.300;2022-10-14T11:38:42;6.63;;;1.55;;
43986;SDS011;29650;47.378;8.300;2022-10-14T11:41:30;3.92;;;1.88;;
43986;SDS011;29650;47.378;8.300;2022-10-14T11:44:09;3.58;;;1.55;;
43986;SDS011;29650;47.378;8.300;2022-10-14T11:46:42;2.70;;;1.40;;
43986;SDS011;29650;47.378;8.300;2022-10-14T11:49:14;2.55;;;1.80;;
43986;SDS011;29650;47.378;8.300;2022-10-14T11:51:48;3.75;;;1.67;;
43986;SDS011;29650;47.378;8.300;2022-10-14T11:54:21;2.65;;;1.10;;
43986;SDS011;29650;47.378;8.300;2022-10-14T11:56:55;3.30;;;1.55;;
43986;SDS011;29650;47.378;8.300;2022-10-14T11:59:28;2.67;;;1.63;;
43986;SDS011;29650;47.378;8.300;2022-10-14T12:02:10;1.88;;;1.25;;
43986;SDS011;29650;47.378;8.300;2022-10-14T12:04:45;2.60;;;1.30;;
43986;SDS011;29650;47.378;8.300;2022-10-14T12:07:19;2.55;;;1.63;;
43986;SDS011;29650;47.378;8.300;2022-10-14T12:09:52;2.38;;;1.08;;
43986;SDS011;29650;47.378;8.300;2022-10-14T12:12:24;1.77;;;1.27;;
43986;SDS011;29650;47.378;8.300;2022-10-14T12:14:53;2.65;;;1.10;;
43986;SDS011;29650;47.378;8.300;2022-10-14T12:17:26;2.53;;;1.17;;
43986;SDS011;29650;47.378;8.300;2022-10-14T12:19:57;2.53;;;1.05;;
43986;SDS011;29650;47.378;8.300;2022-10-14T12:22:33;3.10;;;1.20;;
43986;SDS011;29650;47.378;8.300;2022-10-14T12:25:04;1.88;;;1.38;;
43986;SDS011;29650;47.378;8.300;2022-10-14T12:27:35;9.35;;;1.83;;
43986;SDS011;29650;47.378;8.300;2022-10-14T12:30:03;3.88;;;1.50;;
43986;SDS011;29650;47.378;8.300;2022-10-14T12:32:58;1.52;;;0.95;;
43986;SDS011;29650;47.378;8.300;2022-10-14T12:35:46;3.30;;;1.17;;
43986;SDS011;29650;47.378;8.300;2022-10-14T12:38:16;1.95;;;1.15;;
43986;SDS011;29650;47.378;8.300;2022-10-14T12:40:45;1.30;;;1.05;;
43986;SDS011;29650;47.378;8.300;2022-10-14T12:43:23;1.67;;;1.00;;
43986;SDS011;29650;47.378;8.300;2022-10-14T12:48:44;2.92;;;1.42;;
43986;SDS011;29650;47.378;8.300;2022-10-14T12:51:15;2.45;;;1.00;;
43986;SDS011;29650;47.378;8.300;2022-10-14T12:53:49;3.50;;;1.00;;
43986;SDS011;29650;47.378;8.300;2022-10-14T12:56:30;2.30;;;1.40;;
43986;SDS011;29650;47.378;8.300;2022-10-14T12:59:00;2.08;;;1.20;;
43986;SDS011;29650;47.378;8.300;2022-10-14T13:01:29;2.28;;;1.50;;
43986;SDS011;29650;47.378;8.300;2022-10-14T13:03:57;5.07;;;1.50;;
43986;SDS011;29650;47.378;8.300;2022-10-14T13:06:28;2.25;;;1.63;;
43986;SDS011;29650;47.378;8.300;2022-10-14T13:21:28;2.92;;;1.30;;
43986;SDS011;29650;47.378;8.300;2022-10-14T13:24:12;6.13;;;1.33;;
43986;SDS011;29650;47.378;8.300;2022-10-14T13:26:43;2.38;;;1.40;;
43986;SDS011;29650;47.378;8.300;2022-10-14T13:29:21;2.90;;;1.30;;
43986;SDS011;29650;47.378;8.300;2022-10-14T13:31:57;1.77;;;1.20;;
43986;SDS011;29650;47.378;8.300;2022-10-14T13:34:33;2.60;;;1.40;;
43986;SDS011;29650;47.378;8.300;2022-10-14T13:37:27;2.72;;;1.15;;
43986;SDS011;29650;47.378;8.300;2022-10-14T13:40:04;1.88;;;1.35;;
43986;SDS011;29650;47.378;8.300;2022-10-14T13:42:44;2.97;;;1.70;;
43986;SDS011;29650;47.378;8.300;2022-10-14T13:45:15;1.38;;;1.02;;
43986;SDS011;29650;47.378;8.300;2022-10-14T13:47:46;1.50;;;0.80;;
43986;SDS011;29650;47.378;8.300;2022-10-14T13:52:45;1.70;;;1.08;;
43986;SDS011;29650;47.378;8.300;2022-10-14T13:55:20;6.72;;;1.75;;
43986;SDS011;29650;47.378;8.300;2022-10-14T13:57:58;4.45;;;1.63;;
43986;SDS011;29650;47.378;8.300;2022-10-14T14:00:26;2.50;;;1.48;;
43986;SDS011;29650;47.378;8.300;2022-10-14T14:02:55;6.70;;;1.60;;
43986;SDS011;29650;47.378;8.300;2022-10-14T14:05:24;1.80;;;1.00;;
43986;SDS011;29650;47.378;8.300;2022-10-14T14:07:52;2.38;;;1.63;;
43986;SDS011;29650;47.378;8.300;2022-10-14T14:10:21;4.35;;;1.58;;
43986;SDS011;29650;47.378;8.300;2022-10-14T14:12:49;1.63;;;1.25;;
43986;SDS011;29650;47.378;8.300;2022-10-14T14:15:17;1.50;;;1.17;;
43986;SDS011;29650;47.378;8.300;2022-10-14T14:17:48;2.60;;;1.25;;
43986;SDS011;29650;47.378;8.300;2022-10-14T14:20:17;3.13;;;1.10;;
43986;SDS011;29650;47.378;8.300;2022-10-14T14:22:47;1.95;;;1.50;;
43986;SDS011;29650;47.378;8.300;2022-10-14T14:25:20;1.05;;;0.88;;
43986;SDS011;29650;47.378;8.300;2022-10-14T14:27:50;1.55;;;1.45;;
43986;SDS011;29650;47.378;8.300;2022-10-14T14:32:47;4.93;;;1.25;;
43986;SDS011;29650;47.378;8.300;2022-10-14T14:35:15;1.48;;;1.38;;
43986;SDS011;29650;47.378;8.300;2022-10-14T14:37:44;2.95;;;0.88;;
43986;SDS011;29650;47.378;8.300;2022-10-14T14:40:17;0.60;;;0.50;;
43986;SDS011;29650;47.378;8.300;2022-10-14T14:42:47;3.50;;;1.02;;
43986;SDS011;29650;47.378;8.300;2022-10-14T14:45:17;1.38;;;0.82;;
43986;SDS011;29650;47.378;8.300;2022-10-14T14:47:46;3.30;;;1.13;;
43986;SDS011;29650;47.378;8.300;2022-10-14T14:50:15;2.45;;;1.50;;
43986;SDS011;29650;47.378;8.300;2022-10-14T14:52:45;1.23;;;0.95;;
43986;SDS011;29650;47.378;8.300;2022-10-14T14:55:34;7.57;;;1.35;;
43986;SDS011;29650;47.378;8.300;2022-10-14T15:00:31;3.47;;;0.80;;
43986;SDS011;29650;47.378;8.300;2022-10-14T15:02:58;1.85;;;1.17;;
43986;SDS011;29650;47.378;8.300;2022-10-14T15:05:27;0.83;;;0.80;;
43986;SDS011;29650;47.378;8.300;2022-10-14T15:07:54;2.78;;;1.20;;
43986;SDS011;29650;47.378;8.300;2022-10-14T15:10:22;2.55;;;1.30;;
43986;SDS011;29650;47.378;8.300;2022-10-14T15:15:24;3.13;;;1.33;;
43986;SDS011;29650;47.378;8.300;2022-10-14T15:18:10;2.78;;;1.30;;
43986;SDS011;29650;47.378;8.300;2022-10-14T15:20:39;2.53;;;1.10;;
43986;SDS011;29650;47.378;8.300;2022-10-14T15:26:18;1.50;;;0.80;;
43986;SDS011;29650;47.378;8.300;2022-10-14T15:29:00;2.95;;;1.00;;
43986;SDS011;29650;47.378;8.300;2022-10-14T15:31:29;1.90;;;0.90;;
43986;SDS011;29650;47.378;8.300;2022-10-14T15:33:55;3.00;;;1.75;;
43986;SDS011;29650;47.378;8.300;2022-10-14T15:36:22;2.63;;;1.00;;
43986;SDS011;29650;47.378;8.300;2022-10-14T15:38:53;5.60;;;1.30;;
43986;SDS011;29650;47.378;8.300;2022-10-14T15:41:22;2.33;;;1.20;;
43986;SDS011;29650;47.378;8.300;2022-10-14T15:43:50;1.85;;;1.40;;
43986;SDS011;29650;47.378;8.300;2022-10-14T15:46:17;1.40;;;1.20;;
43986;SDS011;29650;47.378;8.300;2022-10-14T15:49:21;3.05;;;1.30;;
43986;SDS011;29650;47.378;8.300;2022-10-14T15:51:51;2.47;;;1.48;;
43986;SDS011;29650;47.378;8.300;2022-10-14T15:54:18;2.08;;;1.40;;
43986;SDS011;29650;47.378;8.300;2022-10-14T15:56:44;1.17;;;0.93;;
43986;SDS011;29650;47.378;8.300;2022-10-14T15:59:13;3.78;;;1.13;;
43986;SDS011;29650;47.378;8.300;2022-10-14T16:01:41;2.10;;;1.00;;